createdAt,value
2022-08-31T00:00:04.945Z,18.54
2022-08-31T00:02:50.133Z,18.51
2022-08-31T00:05:16.772Z,18.43
2022-08-31T00:07:43.377Z,18.38
2022-08-31T00:10:15.580Z,18.41
2022-08-31T00:12:43.283Z,18.37
2022-08-31T00:15:12.209Z,18.28
2022-08-31T00:17:38.709Z,18.25
2022-08-31T00:20:08.993Z,18.27
2022-08-31T00:22:55.726Z,18.30
2022-08-31T00:25:24.021Z,18.30
2022-08-31T00:27:50.856Z,18.06
2022-08-31T00:30:17.902Z,18.15
2022-08-31T00:32:44.402Z,18.22
2022-08-31T00:35:12.153Z,18.04
2022-08-31T00:37:38.598Z,18.10
2022-08-31T00:40:06.670Z,18.06
2022-08-31T00:42:33.233Z,18.09
2022-08-31T00:44:59.703Z,18.02
2022-08-31T00:47:26.245Z,18.09
2022-08-31T00:49:53.027Z,17.96
2022-08-31T00:52:50.870Z,17.92
2022-08-31T00:55:21.523Z,17.94
2022-08-31T00:57:52.972Z,17.95
2022-08-31T01:00:26.050Z,17.98
2022-08-31T01:02:52.884Z,17.92
2022-08-31T01:05:19.554Z,17.89
2022-08-31T01:07:47.755Z,17.92
2022-08-31T01:10:16.730Z,17.86
2022-08-31T01:12:45.485Z,17.84
2022-08-31T01:15:14.467Z,17.86
2022-08-31T01:17:43.038Z,17.79
2022-08-31T01:20:33.118Z,17.79
2022-08-31T01:23:05.601Z,17.79
2022-08-31T01:25:34.223Z,17.69
2022-08-31T01:28:04.478Z,17.72
2022-08-31T01:30:31.428Z,17.76
2022-08-31T01:32:58.182Z,17.75
2022-08-31T01:35:25.129Z,17.71
2022-08-31T01:37:52.453Z,17.61
2022-08-31T01:40:19.282Z,17.63
2022-08-31T01:42:45.878Z,17.56
2022-08-31T01:45:12.980Z,17.67
2022-08-31T01:47:40.399Z,17.53
2022-08-31T01:50:08.428Z,17.51
2022-08-31T01:52:37.442Z,17.58
2022-08-31T01:55:06.028Z,17.58
2022-08-31T01:57:34.072Z,17.59
2022-08-31T02:00:08.314Z,17.57
2022-08-31T02:02:35.307Z,17.52
2022-08-31T02:05:01.891Z,17.50
2022-08-31T02:07:28.367Z,17.51
2022-08-31T02:09:54.938Z,17.49
2022-08-31T02:12:21.455Z,17.47
2022-08-31T02:14:48.091Z,17.43
2022-08-31T02:17:14.671Z,17.31
2022-08-31T02:19:41.196Z,17.33
2022-08-31T02:22:07.645Z,17.36
2022-08-31T02:24:34.355Z,17.21
2022-08-31T02:27:00.973Z,17.27
2022-08-31T02:29:28.511Z,17.27
2022-08-31T02:31:54.991Z,17.24
2022-08-31T02:34:21.548Z,17.11
2022-08-31T02:36:48.096Z,17.15
2022-08-31T02:39:15.055Z,17.14
2022-08-31T02:41:42.078Z,17.16
2022-08-31T02:44:08.535Z,17.16
2022-08-31T02:46:35.317Z,17.19
2022-08-31T02:49:02.036Z,17.14
2022-08-31T02:51:28.505Z,17.11
2022-08-31T02:53:54.989Z,17.06
2022-08-31T02:56:21.477Z,17.07
2022-08-31T02:58:54.510Z,16.94
2022-08-31T03:01:22.543Z,16.98
2022-08-31T03:03:50.081Z,16.99
2022-08-31T03:06:17.456Z,16.97
2022-08-31T03:08:43.994Z,16.92
2022-08-31T03:11:10.512Z,17.01
2022-08-31T03:13:38.227Z,16.98
2022-08-31T03:16:05.550Z,16.99
2022-08-31T03:18:32.850Z,16.92
2022-08-31T03:20:59.577Z,16.92
2022-08-31T03:23:26.361Z,16.90
2022-08-31T03:25:52.770Z,16.86
2022-08-31T03:28:19.275Z,16.84
2022-08-31T03:30:45.822Z,16.85
2022-08-31T03:33:12.665Z,16.79
2022-08-31T03:35:43.665Z,16.78
2022-08-31T03:38:12.585Z,16.76
2022-08-31T03:40:41.168Z,16.78
2022-08-31T03:43:11.490Z,16.71
2022-08-31T03:45:42.010Z,16.76
2022-08-31T03:48:12.473Z,16.61
2022-08-31T03:50:41.394Z,16.51
2022-08-31T03:53:09.559Z,16.48
2022-08-31T03:55:39.251Z,16.52
2022-08-31T03:58:07.372Z,16.52
2022-08-31T04:00:34.961Z,16.53
2022-08-31T04:03:02.249Z,16.40
2022-08-31T04:05:30.462Z,16.47
2022-08-31T04:07:57.009Z,16.43
2022-08-31T04:10:23.752Z,16.36
2022-08-31T04:12:50.957Z,16.26
2022-08-31T04:15:18.703Z,16.24
2022-08-31T04:17:46.215Z,16.30
2022-08-31T04:20:13.275Z,16.24
2022-08-31T04:22:39.745Z,16.26
2022-08-31T04:25:06.723Z,16.20
2022-08-31T04:27:33.151Z,16.20
2022-08-31T04:29:59.625Z,16.13
2022-08-31T04:32:26.153Z,16.13
2022-08-31T04:34:56.270Z,16.05
2022-08-31T04:37:23.126Z,16.05
2022-08-31T04:39:51.272Z,16.04
2022-08-31T04:42:18.973Z,16.02
2022-08-31T04:44:45.434Z,16.03
2022-08-31T04:47:12.041Z,16.02
2022-08-31T04:49:38.839Z,15.90
2022-08-31T04:52:05.365Z,15.95
2022-08-31T04:54:32.072Z,15.98
2022-08-31T04:56:59.228Z,15.91
2022-08-31T04:59:27.344Z,15.89
2022-08-31T05:01:55.269Z,15.74
2022-08-31T05:04:24.609Z,15.72
2022-08-31T05:06:51.486Z,15.79
2022-08-31T05:09:21.761Z,15.74
2022-08-31T05:11:50.297Z,15.69
2022-08-31T05:14:16.908Z,15.75
2022-08-31T05:16:44.099Z,15.75
2022-08-31T05:19:11.068Z,15.76
2022-08-31T05:21:40.987Z,15.78
2022-08-31T05:24:14.095Z,15.77
2022-08-31T05:26:44.602Z,15.80
2022-08-31T05:29:16.077Z,15.80
2022-08-31T05:31:48.143Z,15.79
2022-08-31T05:34:18.708Z,15.78
2022-08-31T05:36:49.296Z,15.92
2022-08-31T05:39:15.869Z,16.17
2022-08-31T05:41:46.153Z,16.36
2022-08-31T05:44:13.393Z,16.32
2022-08-31T05:46:40.777Z,16.32
2022-08-31T05:49:08.670Z,16.45
2022-08-31T05:51:38.708Z,16.48
2022-08-31T05:54:07.098Z,16.44
2022-08-31T05:56:34.768Z,16.43
2022-08-31T05:59:01.415Z,16.68
2022-08-31T06:01:31.162Z,16.79
2022-08-31T06:03:59.008Z,16.76
2022-08-31T06:06:26.346Z,16.84
2022-08-31T06:08:53.207Z,17.01
2022-08-31T06:11:22.413Z,17.05
2022-08-31T06:13:52.503Z,16.98
2022-08-31T06:16:20.271Z,16.82
2022-08-31T06:18:50.922Z,16.56
2022-08-31T06:21:26.411Z,16.60
2022-08-31T06:23:54.620Z,16.68
2022-08-31T06:26:22.766Z,16.78
2022-08-31T06:28:52.527Z,16.88
2022-08-31T06:31:25.731Z,16.79
2022-08-31T06:33:52.942Z,16.86
2022-08-31T06:36:21.842Z,16.93
2022-08-31T06:38:48.412Z,16.96
2022-08-31T06:41:17.179Z,17.14
2022-08-31T06:43:44.435Z,17.14
2022-08-31T06:46:12.261Z,17.14
2022-08-31T06:48:39.049Z,17.13
2022-08-31T06:51:07.232Z,17.35
2022-08-31T06:53:40.137Z,17.57
2022-08-31T06:56:16.440Z,17.84
2022-08-31T06:58:53.499Z,17.84
2022-08-31T07:01:35.863Z,17.88
2022-08-31T07:04:09.099Z,18.04
2022-08-31T07:06:38.891Z,18.04
2022-08-31T07:09:07.922Z,18.01
2022-08-31T07:11:40.998Z,18.12
2022-08-31T07:14:12.533Z,18.41
2022-08-31T07:16:39.606Z,18.67
2022-08-31T07:19:07.383Z,18.99
2022-08-31T07:21:41.348Z,19.13
2022-08-31T07:24:10.123Z,19.15
2022-08-31T07:26:42.756Z,19.40
2022-08-31T07:29:11.177Z,19.79
2022-08-31T07:31:46.341Z,19.74
2022-08-31T07:34:28.132Z,20.08
2022-08-31T07:37:15.298Z,20.03
2022-08-31T07:40:06.371Z,20.06
2022-08-31T07:42:37.850Z,20.00
2022-08-31T07:45:09.367Z,20.13
2022-08-31T07:47:45.022Z,20.54
2022-08-31T07:50:11.655Z,20.94
2022-08-31T07:52:47.027Z,21.13
2022-08-31T07:55:15.257Z,21.08
2022-08-31T07:57:45.201Z,21.31
2022-08-31T08:00:21.363Z,21.46
2022-08-31T08:02:52.924Z,21.27
2022-08-31T08:05:26.790Z,21.49
2022-08-31T08:07:58.310Z,21.69
2022-08-31T08:10:26.186Z,22.13
2022-08-31T08:12:58.114Z,22.23
2022-08-31T08:15:26.659Z,22.41
2022-08-31T08:17:53.261Z,22.37
2022-08-31T08:20:34.039Z,22.54
2022-08-31T08:23:08.980Z,22.31
2022-08-31T08:25:37.530Z,22.57
2022-08-31T08:28:17.418Z,22.79
2022-08-31T08:30:54.326Z,23.03
2022-08-31T08:33:21.909Z,22.93
2022-08-31T08:35:57.320Z,22.57
2022-08-31T08:38:25.975Z,23.10
2022-08-31T08:40:53.174Z,23.60
2022-08-31T08:43:30.187Z,23.78
2022-08-31T08:45:57.593Z,24.06
2022-08-31T08:48:28.469Z,23.94
2022-08-31T08:50:54.937Z,23.94
2022-08-31T08:53:24.559Z,23.91
2022-08-31T08:55:51.417Z,24.09
2022-08-31T08:58:19.137Z,24.34
2022-08-31T09:00:51.794Z,24.28
2022-08-31T09:03:44.236Z,24.43
2022-08-31T09:06:19.348Z,24.44
2022-08-31T09:09:10.082Z,24.83
2022-08-31T09:11:46.526Z,24.67
2022-08-31T09:14:35.769Z,24.42
2022-08-31T09:17:17.784Z,24.60
2022-08-31T09:20:01.510Z,24.22
2022-08-31T09:22:30.378Z,24.49
2022-08-31T09:24:59.791Z,24.82
2022-08-31T09:27:45.704Z,25.26
2022-08-31T09:30:32.361Z,25.23
2022-08-31T09:32:58.962Z,25.57
2022-08-31T09:35:36.769Z,25.94
2022-08-31T09:38:09.873Z,26.00
2022-08-31T09:40:49.626Z,25.55
2022-08-31T09:43:22.255Z,25.72
2022-08-31T09:46:03.978Z,26.09
2022-08-31T09:48:51.944Z,26.06
2022-08-31T09:51:49.146Z,26.35
2022-08-31T09:54:34.482Z,26.74
2022-08-31T09:57:04.262Z,27.12
2022-08-31T09:59:45.898Z,26.82
2022-08-31T10:02:26.856Z,27.07
2022-08-31T10:04:57.154Z,27.54
2022-08-31T10:07:43.168Z,27.52
2022-08-31T10:10:30.499Z,27.34
2022-08-31T10:13:07.620Z,27.48
2022-08-31T10:15:43.981Z,27.25
2022-08-31T10:18:38.091Z,26.97
2022-08-31T10:21:10.612Z,27.48
2022-08-31T10:23:54.010Z,27.55
2022-08-31T10:26:36.557Z,27.74
2022-08-31T10:29:19.150Z,27.94
2022-08-31T10:31:53.656Z,27.43
2022-08-31T10:34:45.406Z,27.80
2022-08-31T10:37:24.794Z,27.71
2022-08-31T10:39:58.615Z,27.19
2022-08-31T10:42:29.991Z,27.49
2022-08-31T10:45:09.155Z,27.83
2022-08-31T10:47:41.761Z,27.67
2022-08-31T10:50:10.548Z,27.64
2022-08-31T10:52:47.567Z,27.49
2022-08-31T10:55:29.251Z,27.84
2022-08-31T10:58:34.680Z,28.48
2022-08-31T11:01:19.574Z,28.72
2022-08-31T11:04:29.289Z,29.17
2022-08-31T11:07:25.072Z,29.59
2022-08-31T11:10:19.800Z,29.39
2022-08-31T11:12:55.164Z,29.08
2022-08-31T11:15:39.258Z,29.24
2022-08-31T11:18:43.201Z,29.35
2022-08-31T11:21:18.059Z,29.39
2022-08-31T11:23:57.112Z,29.33
2022-08-31T11:26:57.002Z,29.45
2022-08-31T11:29:46.252Z,29.75
2022-08-31T11:32:45.754Z,29.25
2022-08-31T11:35:15.094Z,29.56
2022-08-31T11:37:54.485Z,29.31
2022-08-31T11:40:42.531Z,29.75
2022-08-31T11:43:31.207Z,29.86
2022-08-31T11:46:19.702Z,30.06
2022-08-31T11:48:53.612Z,30.10
2022-08-31T11:51:37.321Z,29.79
2022-08-31T11:54:41.434Z,29.58
2022-08-31T11:57:15.901Z,29.33
2022-08-31T11:59:46.043Z,29.84
2022-08-31T12:02:21.721Z,29.65
2022-08-31T12:05:03.196Z,29.48
2022-08-31T12:07:35.953Z,29.48
2022-08-31T12:10:43.514Z,29.44
2022-08-31T12:13:37.772Z,29.29
2022-08-31T12:16:17.882Z,29.12
2022-08-31T12:18:51.613Z,29.57
2022-08-31T12:21:52.705Z,29.75
2022-08-31T12:24:49.408Z,29.74
2022-08-31T12:27:34.602Z,29.57
2022-08-31T12:30:22.534Z,29.95
2022-08-31T12:33:14.856Z,30.01
2022-08-31T12:35:41.442Z,29.63
2022-08-31T12:38:16.191Z,29.74
2022-08-31T12:40:45.411Z,29.78
2022-08-31T12:43:22.249Z,30.08
2022-08-31T12:46:05.856Z,30.25
2022-08-31T12:48:44.373Z,30.28
2022-08-31T12:51:18.898Z,30.54
2022-08-31T12:54:24.522Z,30.75
2022-08-31T12:57:05.743Z,31.03
2022-08-31T13:00:01.183Z,30.59
2022-08-31T13:02:32.888Z,30.70
2022-08-31T13:05:00.457Z,30.59
2022-08-31T13:07:35.135Z,30.42
2022-08-31T13:10:16.643Z,30.67
2022-08-31T13:12:52.416Z,30.55
2022-08-31T13:15:28.783Z,30.42
2022-08-31T13:17:56.471Z,30.25
2022-08-31T13:20:35.443Z,29.80
2022-08-31T13:23:02.532Z,29.97
2022-08-31T13:25:35.759Z,30.50
2022-08-31T13:28:12.413Z,30.03
2022-08-31T13:30:41.430Z,30.08
2022-08-31T13:33:31.280Z,30.48
2022-08-31T13:36:10.022Z,30.20
2022-08-31T13:38:48.730Z,30.31
2022-08-31T13:41:28.581Z,30.40
2022-08-31T13:44:05.677Z,30.55
2022-08-31T13:46:43.273Z,30.35
2022-08-31T13:49:25.939Z,30.22
2022-08-31T13:51:52.703Z,30.73
2022-08-31T13:54:34.787Z,29.99
2022-08-31T13:57:20.621Z,30.09
2022-08-31T13:59:49.047Z,30.50
2022-08-31T14:02:16.257Z,30.41
2022-08-31T14:04:45.648Z,30.19
2022-08-31T14:07:43.676Z,29.63
2022-08-31T14:10:14.917Z,29.95
2022-08-31T14:12:47.221Z,30.19
2022-08-31T14:15:18.402Z,30.04
2022-08-31T14:21:24.134Z,29.75
2022-08-31T14:24:01.263Z,29.53
2022-08-31T14:26:34.085Z,29.59
2022-08-31T14:29:10.011Z,29.59
2022-08-31T14:31:56.124Z,29.33
2022-08-31T14:34:35.173Z,29.18
2022-08-31T14:37:06.269Z,28.97
2022-08-31T14:39:36.313Z,29.01
2022-08-31T14:42:08.057Z,29.07
2022-08-31T14:44:39.566Z,28.95
2022-08-31T14:47:06.314Z,29.04
2022-08-31T14:49:36.264Z,28.98
2022-08-31T14:52:06.900Z,29.23
2022-08-31T14:54:39.390Z,28.91
2022-08-31T14:57:17.572Z,28.69
2022-08-31T14:59:46.737Z,28.63
2022-08-31T15:02:21.190Z,28.37
2022-08-31T15:04:48.490Z,28.28
2022-08-31T15:07:16.534Z,28.11
2022-08-31T15:09:44.561Z,28.06
2022-08-31T15:12:12.220Z,27.16
2022-08-31T15:14:42.185Z,27.35
2022-08-31T15:17:18.958Z,27.23
2022-08-31T15:19:47.991Z,26.89
2022-08-31T15:22:15.817Z,26.97
2022-08-31T15:24:44.732Z,27.09
2022-08-31T15:27:14.339Z,26.97
2022-08-31T15:29:43.216Z,26.81
2022-08-31T15:32:16.262Z,26.86
2022-08-31T15:34:53.230Z,26.66
2022-08-31T15:37:21.368Z,26.42
2022-08-31T15:39:49.250Z,26.37
2022-08-31T15:42:21.128Z,26.33
2022-08-31T15:44:56.726Z,26.31
2022-08-31T15:47:48.311Z,26.34
2022-08-31T15:50:19.247Z,26.27
2022-08-31T15:52:51.125Z,26.22
2022-08-31T15:55:23.532Z,26.12
2022-08-31T15:57:54.205Z,26.09
2022-08-31T16:00:23.694Z,26.07
2022-08-31T16:02:57.069Z,25.77
2022-08-31T16:05:28.192Z,25.88
2022-08-31T16:07:55.655Z,25.84
2022-08-31T16:10:23.323Z,25.83
2022-08-31T16:12:51.877Z,25.77
2022-08-31T16:15:24.487Z,25.79
2022-08-31T16:17:51.345Z,25.87
2022-08-31T16:20:17.884Z,25.84
2022-08-31T16:22:44.553Z,25.84
2022-08-31T16:25:14.613Z,25.64
2022-08-31T16:27:43.266Z,25.51
2022-08-31T16:30:11.801Z,25.52
2022-08-31T16:32:38.610Z,25.55
2022-08-31T16:35:06.108Z,25.37
2022-08-31T16:37:33.491Z,25.37
2022-08-31T16:40:00.290Z,25.45
2022-08-31T16:42:27.518Z,25.47
2022-08-31T16:44:58.449Z,25.28
2022-08-31T16:47:28.942Z,25.28
2022-08-31T16:49:55.853Z,25.25
2022-08-31T16:52:26.553Z,25.24
2022-08-31T16:54:56.410Z,25.31
2022-08-31T16:57:26.944Z,25.21
2022-08-31T16:59:54.886Z,25.19
2022-08-31T17:02:22.973Z,25.17
2022-08-31T17:04:53.888Z,25.15
2022-08-31T17:07:23.016Z,25.13
2022-08-31T17:09:50.041Z,25.09
2022-08-31T17:12:21.255Z,24.89
2022-08-31T17:14:52.377Z,24.99
2022-08-31T17:17:22.422Z,24.86
2022-08-31T17:19:50.428Z,24.78
2022-08-31T17:22:25.752Z,24.77
2022-08-31T17:24:57.461Z,24.73
2022-08-31T17:27:25.741Z,24.63
2022-08-31T17:29:55.165Z,24.54
2022-08-31T17:32:25.352Z,24.53
2022-08-31T17:34:54.253Z,24.50
2022-08-31T17:37:32.185Z,24.31
2022-08-31T17:39:59.261Z,24.40
2022-08-31T17:42:28.068Z,24.38
2022-08-31T17:44:56.614Z,24.28
2022-08-31T17:47:24.816Z,24.21
2022-08-31T17:49:52.493Z,24.26
2022-08-31T17:52:21.385Z,24.26
2022-08-31T17:54:51.302Z,24.28
2022-08-31T17:57:22.129Z,24.23
2022-08-31T17:59:49.090Z,24.21
2022-08-31T18:02:19.919Z,24.17
2022-08-31T18:04:47.573Z,24.06
2022-08-31T18:07:14.586Z,23.99
2022-08-31T18:09:45.258Z,23.92
2022-08-31T18:12:12.053Z,23.83
2022-08-31T18:14:39.078Z,23.82
2022-08-31T18:17:09.445Z,23.77
2022-08-31T18:19:36.592Z,23.71
2022-08-31T18:22:03.890Z,23.62
2022-08-31T18:24:34.143Z,23.62
2022-08-31T18:27:03.894Z,23.59
2022-08-31T18:29:33.948Z,23.55
2022-08-31T18:32:05.144Z,23.50
2022-08-31T18:34:34.699Z,23.39
2022-08-31T18:37:02.189Z,23.32
2022-08-31T18:39:51.486Z,23.09
2022-08-31T18:42:38.146Z,23.04
2022-08-31T18:45:18.998Z,22.95
2022-08-31T18:48:20.869Z,22.92
2022-08-31T18:50:45.099Z,22.77
2022-08-31T18:53:15.006Z,22.74
2022-08-31T18:55:43.272Z,22.74
2022-08-31T18:58:09.881Z,22.55
2022-08-31T19:00:36.921Z,22.55
2022-08-31T19:03:04.072Z,22.35
2022-08-31T19:05:32.456Z,22.31
2022-08-31T19:08:00.078Z,22.20
2022-08-31T19:10:26.762Z,22.25
2022-08-31T19:12:55.520Z,22.14
2022-08-31T19:15:25.542Z,22.07
2022-08-31T19:18:02.309Z,22.03
2022-08-31T19:20:30.222Z,21.96
2022-08-31T19:22:57.018Z,21.86
2022-08-31T19:25:24.314Z,21.69
2022-08-31T19:27:51.286Z,21.62
2022-08-31T19:30:24.383Z,21.67
2022-08-31T19:32:53.485Z,21.60
2022-08-31T19:35:19.953Z,21.59
2022-08-31T19:37:47.241Z,21.48
2022-08-31T19:40:17.785Z,21.34
2022-08-31T19:43:41.832Z,21.37
2022-08-31T19:45:48.520Z,21.22
2022-08-31T19:48:17.312Z,21.21
2022-08-31T19:50:43.870Z,20.93
2022-08-31T19:53:11.966Z,20.99
2022-08-31T19:55:50.119Z,20.96
2022-08-31T19:58:19.060Z,20.81
2022-08-31T20:00:45.857Z,20.76
2022-08-31T20:03:15.582Z,20.69
2022-08-31T20:05:43.232Z,20.70
2022-08-31T20:08:10.205Z,20.74
2022-08-31T20:10:44.582Z,20.76
2022-08-31T20:13:12.382Z,20.58
2022-08-31T20:15:41.164Z,20.54
2022-08-31T20:18:11.200Z,20.44
2022-08-31T20:20:48.805Z,20.47
2022-08-31T20:23:17.568Z,20.37
2022-08-31T20:25:46.127Z,20.40
2022-08-31T20:28:13.491Z,20.29
2022-08-31T20:30:43.566Z,20.15
2022-08-31T20:33:11.726Z,20.10
2022-08-31T20:35:47.074Z,20.11
2022-08-31T20:38:17.854Z,20.15
2022-08-31T20:40:47.070Z,20.12
2022-08-31T20:43:14.329Z,20.05
2022-08-31T20:45:42.157Z,20.07
2022-08-31T20:48:28.241Z,19.95
2022-08-31T20:50:55.797Z,19.87
2022-08-31T20:53:38.972Z,19.94
2022-08-31T20:56:17.026Z,19.92
2022-08-31T20:58:45.295Z,19.91
2022-08-31T21:01:13.604Z,19.87
2022-08-31T21:03:40.815Z,19.80
2022-08-31T21:06:11.369Z,19.78
2022-08-31T21:08:39.734Z,19.80
2022-08-31T21:11:11.765Z,19.69
2022-08-31T21:13:38.500Z,19.66
2022-08-31T21:16:05.289Z,19.59
2022-08-31T21:18:33.983Z,19.52
2022-08-31T21:21:09.025Z,19.39
2022-08-31T21:23:37.425Z,19.39
2022-08-31T21:26:07.496Z,19.35
2022-08-31T21:28:38.363Z,19.30
2022-08-31T21:31:18.338Z,19.31
2022-08-31T21:33:57.293Z,19.25
2022-08-31T21:36:26.463Z,19.27
2022-08-31T21:38:57.309Z,19.20
2022-08-31T21:41:26.855Z,19.12
2022-08-31T21:43:55.589Z,19.13
2022-08-31T21:46:27.951Z,19.01
2022-08-31T21:48:56.668Z,19.00
2022-08-31T21:51:24.795Z,18.95
2022-08-31T21:53:54.694Z,18.92
2022-08-31T21:56:23.895Z,18.94
2022-08-31T21:58:50.587Z,18.91
2022-08-31T22:01:20.687Z,18.88
2022-08-31T22:03:48.669Z,18.81
2022-08-31T22:06:26.953Z,18.82
2022-08-31T22:09:00.098Z,18.83
2022-08-31T22:11:30.209Z,18.79
2022-08-31T22:13:58.537Z,18.77
2022-08-31T22:16:25.573Z,18.77
2022-08-31T22:19:02.681Z,18.75
2022-08-31T22:21:34.497Z,18.71
2022-08-31T22:24:06.386Z,18.71
2022-08-31T22:26:40.472Z,18.62
2022-08-31T22:29:09.317Z,18.49
2022-08-31T22:31:37.913Z,18.45
2022-08-31T22:34:06.903Z,18.46
2022-08-31T22:36:37.090Z,18.41
2022-08-31T22:39:09.634Z,18.45
2022-08-31T22:41:38.372Z,18.41
2022-08-31T22:44:06.378Z,18.40
2022-08-31T22:46:34.074Z,18.30
2022-08-31T22:49:01.893Z,18.23
2022-08-31T22:51:28.429Z,18.21
2022-08-31T22:53:54.989Z,18.12
2022-08-31T22:56:25.815Z,18.06
2022-08-31T22:58:57.891Z,18.00
2022-08-31T23:01:31.947Z,18.04
2022-08-31T23:04:00.756Z,18.01
2022-08-31T23:06:30.249Z,17.93
2022-08-31T23:08:57.657Z,17.95
2022-08-31T23:11:25.750Z,17.96
2022-08-31T23:13:57.263Z,17.96
2022-08-31T23:16:26.528Z,17.90
2022-08-31T23:18:57.500Z,17.89
2022-08-31T23:21:29.500Z,17.89
2022-08-31T23:23:56.713Z,17.81
2022-08-31T23:26:26.981Z,17.79
2022-08-31T23:28:58.817Z,17.73
2022-08-31T23:31:27.397Z,17.73
2022-08-31T23:33:54.560Z,17.74
2022-08-31T23:36:26.096Z,17.66
2022-08-31T23:38:55.076Z,17.62
2022-08-31T23:41:25.849Z,17.54
2022-08-31T23:43:53.428Z,17.51
2022-08-31T23:46:21.986Z,17.52
2022-08-31T23:48:48.538Z,17.47
2022-08-31T23:51:15.661Z,17.44
2022-08-31T23:53:45.666Z,17.38
2022-08-31T23:56:12.868Z,17.34
2022-08-31T23:58:40.404Z,17.35
